Darstellungsparameter: Aktuell verwendete Einstellungen:
Skalierung der Graphiken ... ?
xyx+y,   Skalierungsfaktor:      Skalierung: Modus: x, Faktor: 1
Darstellungszeitraum ... ?
Vom - - bis: - -   Zeitraum: 05.07.2015 - 04.08.2015
Min/Max/Avg-Anzeige ... ?
Zeige MMA aktuell
Zeige MMA Monat
Zeige MMA alles
Zeige --A aktuell
Zeige --A Monat
Zeige --A alles
Keine MMA-Anzeige
MMA:
Average (ber die Originaldaten)
MMA-Basis: 23.02.2003 - 03.08.2020
Quicknavigation für Darstellung... ?
Tage:      1T, 2T, 3T, 5T -1T -2T -3T -5T +1T +2T +3T +5T
Wochen: 1W, 2W, 3W -1W -2W -3W +1W +2W +3W
Monate: 1M, 3M, 6M -1M -3M -6M +1M +3M +6M
Jahre:    1J, 3J, 5J, 10J -1J -3J -5J -10J +1J +3J +5J +10J
Nutze für die Darstellung ... ?
Originaldaten oder ...
Mittelwerte Minima Maxima auf...
Stundenbasis Tagesbasis Wochenbasis
Monatsbasis Jahresbasis      Datenbasis: Mittelwerte auf Stundenbasis
Darstellen als:
Statistik (Auto) Statistik J:M      Darstellung:
Zur Graphik,    zurück zur Übersicht aller Sensoren.
 
Tabellarische Datenbersicht: ?
 
Sensor: Nr:Datum:Temp:Abs-Feuchte:Windchill:Wind:
Aussen-T/F 1 05-07-2015 00:00:00 23.3 C 16.95 g/m*3 23.3 C 0.53333 km/h
2 05-07-2015 01:00:00 23.04167 C 16.98 g/m*3 23.04 C 1.875 km/h
3 05-07-2015 02:00:00 24.20833 C 15.8 g/m*3 24.21 C 3.08333 km/h
4 05-07-2015 03:00:00 24.13333 C 14.94 g/m*3 24.13 C 5.09167 km/h
5 05-07-2015 04:00:00 22.63333 C 14.54 g/m*3 22.63 C 2.275 km/h
6 05-07-2015 05:00:00 21.49167 C 14.17 g/m*3 21.49 C 1.33333 km/h
7 05-07-2015 06:00:00 21.25833 C 14.18 g/m*3 21.26 C 2.13333 km/h
8 05-07-2015 07:00:00 21.33333 C 14.38 g/m*3 21.33 C 1.33333 km/h
9 05-07-2015 08:00:00 22.80833 C 14.94 g/m*3 22.81 C 0.53333 km/h
10 05-07-2015 09:00:00 24.60833 C 15.27 g/m*3 24.61 C 3.06667 km/h
11 05-07-2015 10:00:00 27 C 16.43 g/m*3 27 C 3.60833 km/h
12 05-07-2015 11:00:00 29.19167 C 17.63 g/m*3 29.19 C 4.13333 km/h
13 05-07-2015 12:00:00 31.85833 C 18.29 g/m*3 31.86 C 3.6 km/h
14 05-07-2015 13:00:00 34.45833 C 18.67 g/m*3 34.46 C 5.75 km/h
15 05-07-2015 14:00:00 36.95 C 15.89 g/m*3 36.95 C 8.86667 km/h
16 05-07-2015 15:00:00 37.48333 C 14.83 g/m*3 37.48 C 15.43333 km/h
17 05-07-2015 16:00:00 38.04167 C 14.37 g/m*3 38.04 C 13.56667 km/h
18 05-07-2015 17:00:00 38.11667 C 13.38 g/m*3 38.12 C 14.63333 km/h
19 05-07-2015 18:00:00 34.73333 C 14.46 g/m*3 34.73 C 21.325 km/h
20 05-07-2015 19:00:00 25.9 C 15.25 g/m*3 25.9 C 20.79167 km/h
21 05-07-2015 20:00:00 22.975 C 14.25 g/m*3 22.98 C 11.56667 km/h
22 05-07-2015 21:00:00 20.25 C 15.24 g/m*3 20.25 C 3.88333 km/h
23 05-07-2015 22:00:00 18.475 C 14.68 g/m*3 18.48 C 2.54167 km/h
24 05-07-2015 23:00:00 17.85 C 14.3 g/m*3 17.85 C 1.20833 km/h
25 06-07-2015 00:00:00 17.5 C 14.01 g/m*3 17.5 C 0 km/h
Sensor: Nr:Datum:Temp:Abs-Feuchte:Windchill:Wind:
Aussen-T/F 26 06-07-2015 07:00:00 14.62857 C 11.89 g/m*3 14.63 C 0.68571 km/h
27 06-07-2015 08:00:00 16.33 C 12.16 g/m*3 16.33 C 1.76 km/h
28 06-07-2015 09:00:00 17.94286 C 11.39 g/m*3 17.94 C 6.67143 km/h
29 06-07-2015 10:00:00 20.09167 C 11.45 g/m*3 20.09 C 5.63333 km/h
30 06-07-2015 11:00:00 22.05833 C 11.47 g/m*3 22.06 C 6.7 km/h
31 06-07-2015 12:00:00 23.55833 C 10.89 g/m*3 23.56 C 9.40833 km/h
32 06-07-2015 13:00:00 25.11667 C 10.95 g/m*3 25.12 C 7.65833 km/h
33 06-07-2015 14:00:00 26.575 C 10.54 g/m*3 26.58 C 8.475 km/h
34 06-07-2015 15:00:00 27.75833 C 10.29 g/m*3 27.76 C 9.69167 km/h
35 06-07-2015 16:00:00 28.53333 C 10.15 g/m*3 28.53 C 7.51667 km/h
36 06-07-2015 17:00:00 29.1 C 9.99 g/m*3 29.1 C 7.8 km/h
37 06-07-2015 18:00:00 29.49167 C 9.93 g/m*3 29.49 C 8.2 km/h
38 06-07-2015 19:00:00 29.03333 C 10.1 g/m*3 29.03 C 4.95833 km/h
39 06-07-2015 20:00:00 24.98333 C 12.5 g/m*3 24.98 C 1.2 km/h
40 06-07-2015 21:00:00 21.73333 C 12.07 g/m*3 21.73 C 1.6 km/h
41 06-07-2015 22:00:00 19.75556 C 12.15 g/m*3 19.76 C 0.88889 km/h
42 06-07-2015 23:00:00 19 C 11.98 g/m*3 19 C 0 km/h
43 07-07-2015 00:00:00 17.03333 C 12.21 g/m*3 17.03 C 0 km/h
44 07-07-2015 01:00:00 16.275 C 11.22 g/m*3 16.27 C 0 km/h
45 07-07-2015 02:00:00 15.575 C 11.02 g/m*3 15.58 C 0 km/h
46 07-07-2015 03:00:00 15.4 C 10.9 g/m*3 15.4 C 0 km/h
47 07-07-2015 05:00:00 13.7 C 10.97 g/m*3 13.7 C 0 km/h
48 07-07-2015 06:00:00 13.73333 C 10.74 g/m*3 13.73 C 0 km/h
49 07-07-2015 07:00:00 14.20833 C 11.08 g/m*3 14.21 C 0 km/h
50 07-07-2015 08:00:00 16.77 C 12.2 g/m*3 16.77 C 0 km/h
Sensor: Nr:Datum:Temp:Abs-Feuchte:Windchill:Wind:
Aussen-T/F 51 07-07-2015 09:00:00 19.04545 C 12.92 g/m*3 19.05 C 0 km/h
52 07-07-2015 10:00:00 21.51667 C 14.12 g/m*3 21.52 C 0.26667 km/h
53 07-07-2015 11:00:00 26.09167 C 14.93 g/m*3 26.09 C 3.075 km/h
54 07-07-2015 12:00:00 30.53333 C 14.02 g/m*3 30.53 C 4.94167 km/h
55 07-07-2015 13:00:00 32.94167 C 13.19 g/m*3 32.94 C 7.25 km/h
56 07-07-2015 14:00:00 34.55833 C 13.42 g/m*3 34.56 C 9.55833 km/h
57 07-07-2015 15:00:00 33.99167 C 14.6 g/m*3 33.99 C 9.53333 km/h
58 07-07-2015 16:00:00 31.83333 C 13.89 g/m*3 31.83 C 14.21667 km/h
59 07-07-2015 17:00:00 28.76667 C 14.75 g/m*3 28.77 C 12.60833 km/h
60 07-07-2015 18:00:00 26.85833 C 12.62 g/m*3 26.86 C 11.41667 km/h
61 07-07-2015 19:00:00 24.575 C 12.23 g/m*3 24.58 C 12.35833 km/h
62 07-07-2015 20:00:00 23.48333 C 12.47 g/m*3 23.48 C 5.225 km/h
63 07-07-2015 21:00:00 22.83333 C 12.54 g/m*3 22.83 C 3.475 km/h
64 07-07-2015 22:00:00 21.18333 C 13.08 g/m*3 21.18 C 0.66667 km/h
65 07-07-2015 23:00:00 20.81667 C 13.28 g/m*3 20.82 C 0.13333 km/h
66 08-07-2015 00:00:00 21.05833 C 13.22 g/m*3 21.06 C 2.8 km/h
67 08-07-2015 01:00:00 19.56667 C 13.58 g/m*3 19.57 C 8.99167 km/h
68 08-07-2015 02:00:00 16.05 C 12.01 g/m*3 16.05 C 4.81667 km/h
69 08-07-2015 03:00:00 14.56667 C 11.55 g/m*3 14.57 C 1.46667 km/h
70 08-07-2015 04:00:00 13.84167 C 11.25 g/m*3 13.84 C 1.46667 km/h
71 08-07-2015 05:00:00 13.61667 C 10.74 g/m*3 13.62 C 6.31667 km/h
72 08-07-2015 06:00:00 13.84167 C 10.17 g/m*3 13.84 C 7.525 km/h
73 08-07-2015 07:00:00 14.03333 C 9.78 g/m*3 14.03 C 10.35 km/h
74 08-07-2015 08:00:00 15.275 C 9.94 g/m*3 15.28 C 10.625 km/h
75 08-07-2015 09:00:00 16.275 C 9.8 g/m*3 16.27 C 12.625 km/h
Sensor: Nr:Datum:Temp:Abs-Feuchte:Windchill:Wind:
Aussen-T/F 76 08-07-2015 10:00:00 17.03333 C 9.86 g/m*3 17.03 C 12.625 km/h
77 08-07-2015 11:00:00 17.825 C 10.03 g/m*3 17.83 C 15.03333 km/h
78 08-07-2015 12:00:00 18.075 C 10.58 g/m*3 18.08 C 12.09167 km/h
79 08-07-2015 13:00:00 19.55833 C 9.77 g/m*3 19.56 C 15.16667 km/h
80 08-07-2015 14:00:00 19.99167 C 9.7 g/m*3 19.99 C 16.75833 km/h
81 08-07-2015 15:00:00 20.56667 C 9.79 g/m*3 20.57 C 20.64167 km/h
82 08-07-2015 16:00:00 20.16667 C 10.05 g/m*3 20.17 C 20.24167 km/h
83 08-07-2015 17:00:00 21.21667 C 10.26 g/m*3 21.22 C 19.96667 km/h
84 08-07-2015 18:00:00 20.61667 C 10.2 g/m*3 20.62 C 19.16667 km/h
85 08-07-2015 19:00:00 19.48333 C 10.23 g/m*3 19.48 C 17.7 km/h
86 08-07-2015 20:00:00 18.575 C 10.65 g/m*3 18.58 C 15.7 km/h
87 08-07-2015 21:00:00 17.85 C 10.58 g/m*3 17.85 C 12.89167 km/h
88 08-07-2015 22:00:00 17.20833 C 10.87 g/m*3 17.21 C 11.55 km/h
89 08-07-2015 23:00:00 16.7 C 10.84 g/m*3 16.7 C 12.225 km/h
90 09-07-2015 00:00:00 16.225 C 10.91 g/m*3 16.23 C 6.98333 km/h
91 09-07-2015 01:00:00 15.96667 C 10.81 g/m*3 15.97 C 5.89167 km/h
92 09-07-2015 02:00:00 16.26667 C 10.65 g/m*3 16.27 C 6.7 km/h
93 09-07-2015 03:00:00 16.13333 C 10.76 g/m*3 16.13 C 7.51667 km/h
94 09-07-2015 04:00:00 14.95 C 11.23 g/m*3 14.95 C 6.3 km/h
95 09-07-2015 05:00:00 14.10833 C 10.79 g/m*3 14.11 C 9.25833 km/h
96 09-07-2015 06:00:00 13.79167 C 9.93 g/m*3 13.79 C 8.56667 km/h
97 09-07-2015 07:00:00 13.78333 C 9.48 g/m*3 13.78 C 11.95833 km/h
98 09-07-2015 08:00:00 14.45 C 9.27 g/m*3 14.45 C 12.63333 km/h
99 09-07-2015 09:00:00 15.00833 C 8.93 g/m*3 15.01 C 13.29167 km/h
100 09-07-2015 10:00:00 16.8 C 8.83 g/m*3 16.8 C 10.89167 km/h
Sensor: Nr:Datum:Temp:Abs-Feuchte:Windchill:Wind:
Aussen-T/F 101 09-07-2015 11:00:00 17.25 C 8.94 g/m*3 17.25 C 10.49167 km/h
102 09-07-2015 12:00:00 17.66667 C 9.5 g/m*3 17.67 C 8.33333 km/h
103 09-07-2015 13:00:00 18.69167 C 9.52 g/m*3 18.69 C 12.49167 km/h
104 09-07-2015 14:00:00 16.74167 C 9.77 g/m*3 16.74 C 12.36667 km/h
105 09-07-2015 15:00:00 15.925 C 9.55 g/m*3 15.93 C 10.75833 km/h
106 09-07-2015 16:00:00 18.91667 C 9.59 g/m*3 18.92 C 13.43333 km/h
107 09-07-2015 17:00:00 19.20833 C 9.29 g/m*3 19.21 C 12.36667 km/h
108 09-07-2015 18:00:00 20.375 C 8.98 g/m*3 20.38 C 13.96667 km/h
109 09-07-2015 19:00:00 19.89167 C 8.36 g/m*3 19.89 C 11.69167 km/h
110 09-07-2015 20:00:00 18.46667 C 7.88 g/m*3 18.47 C 10.08333 km/h
111 09-07-2015 21:00:00 16.7375 C 7.74 g/m*3 16.74 C 5.0125 km/h
112 09-07-2015 22:00:00 15.40833 C 8.13 g/m*3 15.41 C 3.88333 km/h
113 09-07-2015 23:00:00 13.475 C 8.38 g/m*3 13.48 C 1.06667 km/h
114 10-07-2015 00:00:00 12.45 C 8.36 g/m*3 12.45 C 0.4 km/h
115 10-07-2015 01:00:00 11.63333 C 8.25 g/m*3 11.63 C 1.46667 km/h
116 10-07-2015 02:00:00 11.11667 C 8.11 g/m*3 11.12 C 0.26667 km/h
117 10-07-2015 03:00:00 9.64167 C 7.85 g/m*3 9.64 C 0 km/h
118 10-07-2015 04:00:00 8.775 C 7.71 g/m*3 8.78 C 0 km/h
119 10-07-2015 05:00:00 8.34167 C 7.66 g/m*3 8.34 C 0.4 km/h
120 10-07-2015 06:00:00 8.075 C 7.62 g/m*3 8.07 C 0.13333 km/h
121 10-07-2015 07:00:00 8.50833 C 7.86 g/m*3 8.51 C 0.13333 km/h
122 10-07-2015 08:00:00 10.85 C 8.63 g/m*3 10.85 C 1.2 km/h
123 10-07-2015 09:00:00 12.98333 C 8.83 g/m*3 12.98 C 0.66667 km/h
124 10-07-2015 10:00:00 16.35 C 8.56 g/m*3 16.35 C 4.8 km/h
125 10-07-2015 11:00:00 18.625 C 7.23 g/m*3 18.63 C 5.21667 km/h
Sensor: Nr:Datum:Temp:Abs-Feuchte:Windchill:Wind:
Aussen-T/F 126 10-07-2015 12:00:00 20.65833 C 6.94 g/m*3 20.66 C 5.61667 km/h
127 10-07-2015 13:00:00 22.025 C 6.06 g/m*3 22.03 C 6.96667 km/h
128 10-07-2015 14:00:00 23.175 C 5.86 g/m*3 23.18 C 8.05 km/h
129 10-07-2015 15:00:00 24.40833 C 5.97 g/m*3 24.41 C 8.2 km/h
130 10-07-2015 16:00:00 25.68333 C 5.44 g/m*3 25.68 C 6.83333 km/h
131 10-07-2015 17:00:00 26.58333 C 5.47 g/m*3 26.58 C 7.525 km/h
132 10-07-2015 18:00:00 26.86667 C 5.98 g/m*3 26.87 C 6.55 km/h
133 10-07-2015 19:00:00 26.26667 C 6.49 g/m*3 26.27 C 6.025 km/h
134 10-07-2015 20:00:00 23.58333 C 7.68 g/m*3 23.58 C 2.53333 km/h
135 10-07-2015 21:00:00 19.21667 C 8.73 g/m*3 19.22 C 0.66667 km/h
136 10-07-2015 22:00:00 17 C 8.37 g/m*3 17 C 0.4 km/h
137 10-07-2015 23:00:00 15.51111 C 8.2 g/m*3 15.51 C 0 km/h
138 11-07-2015 00:00:00 14.325 C 8.01 g/m*3 14.33 C 0 km/h
139 11-07-2015 01:00:00 13.225 C 8.08 g/m*3 13.23 C 0 km/h
140 11-07-2015 02:00:00 12.33333 C 8.19 g/m*3 12.33 C 0 km/h
141 11-07-2015 03:00:00 11.63333 C 8.14 g/m*3 11.63 C 0 km/h
142 11-07-2015 04:00:00 11.21667 C 8.08 g/m*3 11.22 C 0 km/h
143 11-07-2015 05:00:00 11.225 C 8.28 g/m*3 11.23 C 0 km/h
144 11-07-2015 06:00:00 11.55833 C 8.6 g/m*3 11.56 C 0.13333 km/h
145 11-07-2015 07:00:00 12.18333 C 9.03 g/m*3 12.18 C 0.13333 km/h
146 11-07-2015 08:00:00 14.66667 C 9.83 g/m*3 14.67 C 0 km/h
147 11-07-2015 09:00:00 17.25833 C 10.38 g/m*3 17.26 C 0.4 km/h
148 11-07-2015 10:00:00 19.525 C 10.64 g/m*3 19.52 C 1.73333 km/h
149 11-07-2015 11:00:00 23.03333 C 10.88 g/m*3 23.03 C 2.93333 km/h
150 11-07-2015 12:00:00 26.43333 C 10.02 g/m*3 26.43 C 4.54167 km/h
Sensor: Nr:Datum:Temp:Abs-Feuchte:Windchill:Wind:
Aussen-T/F 151 11-07-2015 13:00:00 29.10833 C 9.41 g/m*3 29.11 C 7.53333 km/h
152 11-07-2015 14:00:00 30.375 C 9.39 g/m*3 30.38 C 10.63333 km/h
153 11-07-2015 15:00:00 31.26667 C 9.52 g/m*3 31.27 C 10.225 km/h
154 11-07-2015 16:00:00 31.75833 C 9.53 g/m*3 31.76 C 10.5 km/h
155 11-07-2015 17:00:00 31.53333 C 9.11 g/m*3 31.53 C 10.63333 km/h
156 11-07-2015 18:00:00 31.14167 C 8.65 g/m*3 31.14 C 12.225 km/h
157 11-07-2015 19:00:00 29.98333 C 8.61 g/m*3 29.98 C 8.75 km/h
158 11-07-2015 20:00:00 27.8 C 9.73 g/m*3 27.8 C 3.75 km/h
159 11-07-2015 21:00:00 23.44167 C 10.78 g/m*3 23.44 C 0.93333 km/h
160 11-07-2015 22:00:00 22.225 C 10.42 g/m*3 22.23 C 2.26667 km/h
161 11-07-2015 23:00:00 22.54167 C 10.49 g/m*3 22.54 C 5.63333 km/h
162 12-07-2015 00:00:00 21.95 C 10.79 g/m*3 21.95 C 1.2 km/h
163 12-07-2015 02:00:00 18.1875 C 10.72 g/m*3 18.19 C 0.8 km/h
164 12-07-2015 03:00:00 16.88333 C 10.67 g/m*3 16.88 C 0.93333 km/h
165 12-07-2015 04:00:00 15.41667 C 10.41 g/m*3 15.42 C 0.13333 km/h
166 12-07-2015 05:00:00 14.74167 C 10.4 g/m*3 14.74 C 0.93333 km/h
167 12-07-2015 06:00:00 14.48333 C 10.44 g/m*3 14.48 C 0.66667 km/h
168 12-07-2015 07:00:00 14.975 C 10.87 g/m*3 14.98 C 1.46667 km/h
169 12-07-2015 08:00:00 17.34167 C 11.54 g/m*3 17.34 C 4.575 km/h
170 12-07-2015 09:00:00 19.50833 C 11.19 g/m*3 19.51 C 9.14167 km/h
171 12-07-2015 10:00:00 21.425 C 9.78 g/m*3 21.43 C 9.95 km/h
172 12-07-2015 11:00:00 23.55 C 9.46 g/m*3 23.55 C 8.73333 km/h
173 12-07-2015 12:00:00 24 C 10.3 g/m*3 24 C 5.75 km/h
174 12-07-2015 13:00:00 24.90833 C 10.76 g/m*3 24.91 C 6.575 km/h
175 12-07-2015 14:00:00 24.425 C 11.44 g/m*3 24.43 C 7.8 km/h
Sensor: Nr:Datum:Temp:Abs-Feuchte:Windchill:Wind:
Aussen-T/F 176 12-07-2015 15:00:00 22.73333 C 12.16 g/m*3 22.73 C 13.7 km/h
177 12-07-2015 16:00:00 20.1 C 12.62 g/m*3 20.1 C 11.29167 km/h
178 12-07-2015 17:00:00 19.21667 C 12.96 g/m*3 19.22 C 4.66667 km/h
179 12-07-2015 18:00:00 18.375 C 13.62 g/m*3 18.38 C 0.93333 km/h
180 12-07-2015 19:00:00 17.8 C 13.19 g/m*3 17.8 C 2.13333 km/h
181 12-07-2015 20:00:00 16.34167 C 12.24 g/m*3 16.34 C 2.13333 km/h
182 12-07-2015 21:00:00 15.25 C 12.56 g/m*3 15.25 C 0 km/h
183 12-07-2015 22:00:00 15.275 C 12.13 g/m*3 15.28 C 0.26667 km/h
184 13-07-2015 05:00:00 14.7 C 11.46 g/m*3 14.7 C 0 km/h
185 13-07-2015 06:00:00 14.89167 C 11.86 g/m*3 14.89 C 1.33333 km/h
186 13-07-2015 07:00:00 15.58333 C 11.8 g/m*3 15.58 C 4.15833 km/h
187 13-07-2015 08:00:00 16.83333 C 12.05 g/m*3 16.83 C 6.44167 km/h
188 13-07-2015 09:00:00 16.34167 C 12.14 g/m*3 16.34 C 4.29167 km/h
189 13-07-2015 10:00:00 17.28333 C 12.53 g/m*3 17.28 C 8.59167 km/h
190 13-07-2015 11:00:00 18.05833 C 12.45 g/m*3 18.06 C 10.225 km/h
191 13-07-2015 12:00:00 19.08333 C 12.86 g/m*3 19.08 C 10.88333 km/h
192 13-07-2015 13:00:00 18.64167 C 13.2 g/m*3 18.64 C 11.69167 km/h
193 13-07-2015 14:00:00 18.625 C 13.69 g/m*3 18.63 C 12.36667 km/h
194 13-07-2015 15:00:00 18.95833 C 13.56 g/m*3 18.96 C 9.25833 km/h
195 13-07-2015 16:00:00 19.21667 C 13.66 g/m*3 19.22 C 4.68333 km/h
196 13-07-2015 17:00:00 19.8 C 13.72 g/m*3 19.8 C 4.15 km/h
197 13-07-2015 18:00:00 20.37 C 13.39 g/m*3 20.37 C 9.03 km/h
198 13-07-2015 20:00:00 18.63333 C 14.67 g/m*3 18.63 C 1.6 km/h
199 13-07-2015 21:00:00 18.18 C 13.97 g/m*3 18.18 C 2.56 km/h
200 13-07-2015 22:00:00 18.15833 C 13.95 g/m*3 18.16 C 2 km/h
Sensor: Nr:Datum:Temp:Abs-Feuchte:Windchill:Wind:
Aussen-T/F 201 13-07-2015 23:00:00 17.89167 C 13.89 g/m*3 17.89 C 1.875 km/h
202 14-07-2015 00:00:00 18.1 C 14.06 g/m*3 18.1 C 0 km/h
203 14-07-2015 02:00:00 18.45 C 13.76 g/m*3 18.45 C 4.4 km/h
204 14-07-2015 03:00:00 18.56667 C 13.55 g/m*3 18.57 C 4.03333 km/h
205 14-07-2015 04:00:00 18.65833 C 13.26 g/m*3 18.66 C 6.44167 km/h
206 14-07-2015 05:00:00 18.7 C 13.16 g/m*3 18.7 C 8.58889 km/h
207 14-07-2015 06:00:00 18.88182 C 13.23 g/m*3 18.88 C 8.33636 km/h
208 14-07-2015 07:00:00 19.16667 C 13.41 g/m*3 19.17 C 10.35833 km/h
209 14-07-2015 08:00:00 19.49167 C 13.59 g/m*3 19.49 C 7.93333 km/h
210 14-07-2015 09:00:00 20.125 C 13.93 g/m*3 20.13 C 7.65 km/h
211 14-07-2015 10:00:00 20.325 C 13.96 g/m*3 20.33 C 7.91667 km/h
212 14-07-2015 11:00:00 21.28333 C 14.29 g/m*3 21.28 C 8.875 km/h
213 14-07-2015 12:00:00 22.225 C 14.11 g/m*3 22.23 C 10.75 km/h
214 14-07-2015 13:00:00 22.95 C 14.04 g/m*3 22.95 C 12.225 km/h
215 14-07-2015 14:00:00 23.98333 C 13.49 g/m*3 23.98 C 13.56667 km/h
216 14-07-2015 15:00:00 24.03333 C 13.17 g/m*3 24.03 C 13.03333 km/h
217 14-07-2015 16:00:00 24.05833 C 13.33 g/m*3 24.06 C 12.09167 km/h
218 14-07-2015 17:00:00 23.3 C 13.38 g/m*3 23.3 C 9.81667 km/h
219 14-07-2015 18:00:00 22.38571 C 14.46 g/m*3 22.39 C 7.15714 km/h
220 14-07-2015 20:00:00 21.3 C 13.52 g/m*3 21.3 C 6.78889 km/h
221 14-07-2015 21:00:00 21.025 C 13.48 g/m*3 21.03 C 4.675 km/h
222 14-07-2015 22:00:00 20.575 C 13.57 g/m*3 20.58 C 2.675 km/h
223 14-07-2015 23:00:00 19.96667 C 13.58 g/m*3 19.97 C 1.46667 km/h
224 15-07-2015 00:00:00 19.29167 C 13.5 g/m*3 19.29 C 0.66667 km/h
225 15-07-2015 01:00:00 18.725 C 13.44 g/m*3 18.73 C 0 km/h
Sensor: Nr:Datum:Temp:Abs-Feuchte:Windchill:Wind:
Aussen-T/F 226 15-07-2015 02:00:00 18.55833 C 13.31 g/m*3 18.56 C 0 km/h
227 15-07-2015 03:00:00 18.19167 C 13.24 g/m*3 18.19 C 0.13333 km/h
228 15-07-2015 04:00:00 18.13333 C 13.15 g/m*3 18.13 C 1.33333 km/h
229 15-07-2015 05:00:00 17.63333 C 13.01 g/m*3 17.63 C 1.33333 km/h
230 15-07-2015 06:00:00 17.41667 C 13.04 g/m*3 17.42 C 0.13333 km/h
231 15-07-2015 07:00:00 17.97778 C 13.11 g/m*3 17.98 C 1.6 km/h
232 15-07-2015 08:00:00 18.98333 C 13.35 g/m*3 18.98 C 2.13333 km/h
233 15-07-2015 09:00:00 19.95833 C 13.38 g/m*3 19.96 C 2.8 km/h
234 15-07-2015 10:00:00 21.41667 C 13.68 g/m*3 21.42 C 3.86667 km/h
235 15-07-2015 11:00:00 23 C 13.55 g/m*3 23 C 3.6 km/h
236 15-07-2015 12:00:00 25.175 C 13.64 g/m*3 25.18 C 11.03333 km/h
237 15-07-2015 13:00:00 27.04167 C 13.2 g/m*3 27.04 C 11.15833 km/h
238 15-07-2015 14:00:00 27.81667 C 12.83 g/m*3 27.82 C 9.94167 km/h
239 15-07-2015 15:00:00 28.85833 C 13.25 g/m*3 28.86 C 9.26667 km/h
240 15-07-2015 16:00:00 28.01667 C 13.61 g/m*3 28.02 C 6.975 km/h
241 15-07-2015 17:00:00 24.95 C 16.34 g/m*3 24.95 C 3.89167 km/h
242 15-07-2015 18:00:00 22.25 C 17.36 g/m*3 22.25 C 1.2 km/h
243 15-07-2015 19:00:00 22.03333 C 16.63 g/m*3 22.03 C 1.46667 km/h
244 15-07-2015 20:00:00 21.71667 C 15.86 g/m*3 21.72 C 0.8 km/h
245 15-07-2015 21:00:00 21.79167 C 15.68 g/m*3 21.79 C 2.81667 km/h
246 15-07-2015 22:00:00 19.68333 C 15.13 g/m*3 19.68 C 0.13333 km/h
247 15-07-2015 23:00:00 18.725 C 14.62 g/m*3 18.73 C 0 km/h
248 16-07-2015 00:00:00 18.175 C 14.37 g/m*3 18.18 C 0 km/h
249 16-07-2015 01:00:00 17.8 C 14.22 g/m*3 17.8 C 0 km/h
250 16-07-2015 02:00:00 17.28333 C 13.88 g/m*3 17.28 C 0 km/h
Sensor: Nr:Datum:Temp:Abs-Feuchte:Windchill:Wind:
Aussen-T/F 251 16-07-2015 03:00:00 17.04167 C 13.78 g/m*3 17.04 C 0 km/h
252 16-07-2015 04:00:00 16.775 C 13.61 g/m*3 16.77 C 0 km/h
253 16-07-2015 05:00:00 16.76667 C 13.65 g/m*3 16.77 C 0 km/h
254 16-07-2015 06:00:00 17.06667 C 13.95 g/m*3 17.07 C 0.13333 km/h
255 16-07-2015 07:00:00 17.38333 C 14.15 g/m*3 17.38 C 0.13333 km/h
256 16-07-2015 08:00:00 19.05833 C 15.15 g/m*3 19.06 C 0.4 km/h
257 16-07-2015 09:00:00 21.3 C 15.75 g/m*3 21.3 C 1.73333 km/h
258 16-07-2015 10:00:00 23.23333 C 16 g/m*3 23.23 C 3.73333 km/h
259 16-07-2015 11:00:00 25.55 C 16.06 g/m*3 25.55 C 4.4 km/h
260 16-07-2015 12:00:00 27.61667 C 15.8 g/m*3 27.62 C 6.16667 km/h
261 16-07-2015 13:00:00 29.3 C 15.43 g/m*3 29.3 C 5.49167 km/h
262 16-07-2015 14:00:00 30.45 C 15.09 g/m*3 30.45 C 6.15833 km/h
263 16-07-2015 15:00:00 30.05833 C 15.03 g/m*3 30.06 C 5.89167 km/h
264 16-07-2015 16:00:00 31.68333 C 15.1 g/m*3 31.68 C 10.09167 km/h
265 16-07-2015 17:00:00 33.25833 C 14.61 g/m*3 33.26 C 9.13333 km/h
266 16-07-2015 18:00:00 33.875 C 14.35 g/m*3 33.88 C 8.6 km/h
267 16-07-2015 19:00:00 32.90833 C 14.97 g/m*3 32.91 C 3.33333 km/h
268 16-07-2015 20:00:00 28.1 C 15.75 g/m*3 28.1 C 0.53333 km/h
269 16-07-2015 21:00:00 24.98333 C 15.26 g/m*3 24.98 C 0.93333 km/h
270 16-07-2015 22:00:00 23.65 C 14.7 g/m*3 23.65 C 0.93333 km/h
271 16-07-2015 23:00:00 22.775 C 14.29 g/m*3 22.78 C 0 km/h
272 17-07-2015 00:00:00 21.91667 C 14.07 g/m*3 21.92 C 0 km/h
273 17-07-2015 01:00:00 20.79167 C 13.85 g/m*3 20.79 C 0 km/h
274 17-07-2015 02:00:00 20.49167 C 14.14 g/m*3 20.49 C 0.8 km/h
275 17-07-2015 03:00:00 20.30833 C 14.46 g/m*3 20.31 C 0 km/h
Sensor: Nr:Datum:Temp:Abs-Feuchte:Windchill:Wind:
Aussen-T/F 276 17-07-2015 04:00:00 20.2 C 14.54 g/m*3 20.2 C 1.33333 km/h
277 17-07-2015 05:00:00 23.15 C 13.99 g/m*3 23.15 C 8.0625 km/h
278 17-07-2015 06:00:00 24.6 C 13.35 g/m*3 24.6 C 4.01667 km/h
279 17-07-2015 07:00:00 22.40833 C 13.56 g/m*3 22.41 C 1.73333 km/h
280 17-07-2015 08:00:00 23.53333 C 14.2 g/m*3 23.53 C 0.8 km/h
281 17-07-2015 09:00:00 24.625 C 14.48 g/m*3 24.63 C 6.18333 km/h
282 17-07-2015 10:00:00 26.875 C 14.25 g/m*3 26.88 C 11.825 km/h
283 17-07-2015 11:00:00 29.18333 C 13.64 g/m*3 29.18 C 13.425 km/h
284 17-07-2015 12:00:00 31.44167 C 13.9 g/m*3 31.44 C 9 km/h
285 17-07-2015 13:00:00 33.81667 C 12.82 g/m*3 33.82 C 9.40833 km/h
286 17-07-2015 14:00:00 35.61667 C 9.69 g/m*3 35.62 C 13.83333 km/h
287 17-07-2015 15:00:00 36.24167 C 8.75 g/m*3 36.24 C 16.5 km/h
288 17-07-2015 16:00:00 36.575 C 8.93 g/m*3 36.58 C 15.16667 km/h
289 17-07-2015 17:00:00 36.50833 C 9.87 g/m*3 36.51 C 13.16667 km/h
290 17-07-2015 18:00:00 35.98333 C 10.78 g/m*3 35.98 C 13.43333 km/h
291 17-07-2015 19:00:00 34.875 C 11.06 g/m*3 34.88 C 9 km/h
292 17-07-2015 20:00:00 32.46667 C 12.23 g/m*3 32.47 C 6.025 km/h
293 17-07-2015 21:00:00 29.075 C 12.83 g/m*3 29.08 C 1.86667 km/h
294 17-07-2015 22:00:00 26.58333 C 13.18 g/m*3 26.58 C 1.2 km/h
295 17-07-2015 23:00:00 25.29167 C 13.38 g/m*3 25.29 C 1.86667 km/h
296 18-07-2015 00:00:00 24.325 C 14.05 g/m*3 24.33 C 0.93333 km/h
297 18-07-2015 01:00:00 22.775 C 14.05 g/m*3 22.78 C 0.66667 km/h
298 18-07-2015 02:00:00 22.2 C 13.69 g/m*3 22.2 C 2.26667 km/h
299 18-07-2015 03:00:00 21.225 C 13.52 g/m*3 21.23 C 0.53333 km/h
300 18-07-2015 04:00:00 20.55 C 13.59 g/m*3 20.55 C 1.2 km/h
Sensor: Nr:Datum:Temp:Abs-Feuchte:Windchill:Wind:
Aussen-T/F 301 18-07-2015 05:00:00 20.66667 C 13.94 g/m*3 20.67 C 3.875 km/h
302 18-07-2015 06:00:00 20.46667 C 14.52 g/m*3 20.47 C 2 km/h
303 18-07-2015 07:00:00 20.65833 C 14.88 g/m*3 20.66 C 0.53333 km/h
304 18-07-2015 08:00:00 21.51667 C 15.1 g/m*3 21.52 C 1.06667 km/h
305 18-07-2015 09:00:00 22.85 C 14.98 g/m*3 22.85 C 4.81667 km/h
306 18-07-2015 10:00:00 24.93333 C 14.51 g/m*3 24.93 C 5.90833 km/h
307 18-07-2015 11:00:00 26.575 C 14.01 g/m*3 26.58 C 11.95833 km/h
308 18-07-2015 12:00:00 27.44167 C 13.21 g/m*3 27.44 C 13.56667 km/h
309 18-07-2015 13:00:00 27.60833 C 12.8 g/m*3 27.61 C 8.73333 km/h
310 18-07-2015 14:00:00 28 C 12.37 g/m*3 28 C 9.66667 km/h
311 18-07-2015 15:00:00 27.16667 C 12.12 g/m*3 27.17 C 6.16667 km/h
312 18-07-2015 16:00:00 26.76667 C 11.52 g/m*3 26.77 C 9.68333 km/h
313 18-07-2015 17:00:00 26.98333 C 11.48 g/m*3 26.98 C 9.95 km/h
314 18-07-2015 19:00:00 25.86667 C 11.92 g/m*3 25.87 C 1.6 km/h
315 18-07-2015 20:00:00 25.90833 C 10.6 g/m*3 25.91 C 4.94167 km/h
316 18-07-2015 21:00:00 22.6 C 10.88 g/m*3 22.6 C 0.53333 km/h
317 18-07-2015 22:00:00 20.44167 C 10.91 g/m*3 20.44 C 0.13333 km/h
318 18-07-2015 23:00:00 19.45 C 10.79 g/m*3 19.45 C 0.13333 km/h
319 19-07-2015 00:00:00 18.85 C 10.9 g/m*3 18.85 C 0 km/h
320 19-07-2015 05:00:00 16.3 C 12.76 g/m*3 16.3 C 1.4 km/h
321 19-07-2015 07:00:00 16.325 C 13.13 g/m*3 16.33 C 9.65 km/h
322 19-07-2015 08:00:00 17.15 C 13.87 g/m*3 17.15 C 0.8 km/h
323 19-07-2015 09:00:00 17.65 C 14.44 g/m*3 17.65 C 2 km/h
324 19-07-2015 10:00:00 20.08889 C 15.89 g/m*3 20.09 C 3.03333 km/h
325 19-07-2015 11:00:00 22.53333 C 16.81 g/m*3 22.53 C 7.93333 km/h
Sensor: Nr:Datum:Temp:Abs-Feuchte:Windchill:Wind:
Aussen-T/F 326 19-07-2015 12:00:00 22.825 C 16.41 g/m*3 22.83 C 11.81667 km/h
327 19-07-2015 13:00:00 23.225 C 16.52 g/m*3 23.23 C 10.75833 km/h
328 19-07-2015 14:00:00 23.775 C 16.24 g/m*3 23.78 C 12.225 km/h
329 19-07-2015 15:00:00 24.14167 C 15.83 g/m*3 24.14 C 11.675 km/h
330 19-07-2015 16:00:00 22.8 C 16.36 g/m*3 22.8 C 4.94167 km/h
331 19-07-2015 17:00:00 23.575 C 14.44 g/m*3 23.58 C 17.3 km/h
332 19-07-2015 18:00:00 23.175 C 13.74 g/m*3 23.18 C 13.96667 km/h
333 19-07-2015 19:00:00 22.84167 C 13.6 g/m*3 22.84 C 13.15833 km/h
334 19-07-2015 20:00:00 21.96667 C 13.56 g/m*3 21.97 C 10.21667 km/h
335 19-07-2015 21:00:00 21.57143 C 13.8 g/m*3 21.57 C 12.44286 km/h
336 20-07-2015 07:00:00 18.3 C 14.54 g/m*3 18.3 C 0.16 km/h
337 20-07-2015 08:00:00 18.51667 C 14.94 g/m*3 18.52 C 0.26667 km/h
338 20-07-2015 09:00:00 19.03333 C 15.46 g/m*3 19.03 C 0.71111 km/h
339 20-07-2015 10:00:00 20.10833 C 16.19 g/m*3 20.11 C 1.2 km/h
340 20-07-2015 11:00:00 21.35 C 16.9 g/m*3 21.35 C 2 km/h
341 20-07-2015 12:00:00 23.075 C 17.29 g/m*3 23.08 C 5.5 km/h
342 20-07-2015 13:00:00 24.19167 C 17.16 g/m*3 24.19 C 5.65 km/h
343 20-07-2015 14:00:00 22.525 C 17.52 g/m*3 22.53 C 6.56667 km/h
344 20-07-2015 15:00:00 22.4 C 18.19 g/m*3 22.4 C 2.24 km/h
345 20-07-2015 16:00:00 24.2 C 19.09 g/m*3 24.2 C 4.83333 km/h
346 20-07-2015 17:00:00 25.24167 C 18.71 g/m*3 25.24 C 3.74167 km/h
347 20-07-2015 18:00:00 24.48333 C 18.04 g/m*3 24.48 C 3.20833 km/h
348 20-07-2015 19:00:00 23.375 C 18.15 g/m*3 23.38 C 1.73333 km/h
349 20-07-2015 20:00:00 22.35833 C 17.73 g/m*3 22.36 C 3.75 km/h
350 20-07-2015 21:00:00 21.49167 C 17.37 g/m*3 21.49 C 0.53333 km/h
Sensor: Nr:Datum:Temp:Abs-Feuchte:Windchill:Wind:
Aussen-T/F 351 20-07-2015 22:00:00 20.625 C 16.71 g/m*3 20.63 C 0.53333 km/h
352 21-07-2015 02:00:00 18.75 C 15.33 g/m*3 18.75 C 0 km/h
353 21-07-2015 03:00:00 19 C 15.64 g/m*3 19 C 0 km/h
354 21-07-2015 04:00:00 18.87143 C 15.53 g/m*3 18.87 C 0.91429 km/h
355 21-07-2015 05:00:00 18.3 C 15.01 g/m*3 18.3 C 0 km/h
356 21-07-2015 07:00:00 18.66 C 15.43 g/m*3 18.66 C 2.88 km/h
357 21-07-2015 08:00:00 21.46364 C 16.58 g/m*3 21.46 C 8.36364 km/h
358 21-07-2015 09:00:00 22.64167 C 16.53 g/m*3 22.64 C 8.71667 km/h
359 21-07-2015 10:00:00 23.85833 C 16.6 g/m*3 23.86 C 11.54167 km/h
360 21-07-2015 11:00:00 25.13333 C 16.78 g/m*3 25.13 C 10.225 km/h
361 21-07-2015 12:00:00 26.89167 C 16.63 g/m*3 26.89 C 11.56667 km/h
362 21-07-2015 13:00:00 28.68333 C 16.59 g/m*3 28.68 C 11.43333 km/h
363 21-07-2015 14:00:00 29.30833 C 16.45 g/m*3 29.31 C 8.73333 km/h
364 21-07-2015 15:00:00 29.69167 C 16.7 g/m*3 29.69 C 10.075 km/h
365 21-07-2015 16:00:00 31.34167 C 15.75 g/m*3 31.34 C 14.63333 km/h
366 21-07-2015 17:00:00 32.31667 C 15.74 g/m*3 32.32 C 11.96667 km/h
367 21-07-2015 18:00:00 31.29167 C 15.74 g/m*3 31.29 C 8.325 km/h
368 21-07-2015 19:00:00 29.85 C 17.07 g/m*3 29.85 C 8.20833 km/h
369 21-07-2015 20:00:00 28.3 C 17.51 g/m*3 28.3 C 6.43333 km/h
370 21-07-2015 21:00:00 25.35833 C 17.62 g/m*3 25.36 C 1.06667 km/h
371 21-07-2015 22:00:00 22.8 C 17.34 g/m*3 22.8 C 0.13333 km/h
372 21-07-2015 23:00:00 21.875 C 17.07 g/m*3 21.88 C 0 km/h
373 22-07-2015 00:00:00 21.31667 C 16.84 g/m*3 21.32 C 0 km/h
374 22-07-2015 01:00:00 20.71667 C 16.55 g/m*3 20.72 C 0 km/h
375 22-07-2015 02:00:00 20.15 C 16.2 g/m*3 20.15 C 0 km/h
Sensor: Nr:Datum:Temp:Abs-Feuchte:Windchill:Wind:
Aussen-T/F 376 22-07-2015 03:00:00 19.48333 C 15.68 g/m*3 19.48 C 0 km/h
377 22-07-2015 04:00:00 19.09167 C 15.43 g/m*3 19.09 C 0 km/h
378 22-07-2015 05:00:00 18.7 C 15.21 g/m*3 18.7 C 0 km/h
379 22-07-2015 06:00:00 18.80833 C 15.41 g/m*3 18.81 C 0 km/h
380 22-07-2015 07:00:00 19.26 C 15.89 g/m*3 19.26 C 0.48 km/h
381 22-07-2015 08:00:00 22.01667 C 17.23 g/m*3 22.02 C 3.75 km/h
382 22-07-2015 09:00:00 22.76667 C 16.73 g/m*3 22.77 C 6.025 km/h
383 22-07-2015 10:00:00 24.15833 C 16.9 g/m*3 24.16 C 8.05 km/h
384 22-07-2015 11:00:00 24.80833 C 17.06 g/m*3 24.81 C 7.10833 km/h
385 22-07-2015 12:00:00 26.20833 C 17.3 g/m*3 26.21 C 6.16667 km/h
386 22-07-2015 13:00:00 27.09167 C 16.99 g/m*3 27.09 C 6.3 km/h
387 22-07-2015 14:00:00 26.78333 C 15.94 g/m*3 26.78 C 9.00833 km/h
388 22-07-2015 15:00:00 27.00833 C 15.92 g/m*3 27.01 C 7.79167 km/h
389 22-07-2015 16:00:00 26.84167 C 15.92 g/m*3 26.84 C 7.39167 km/h
390 22-07-2015 17:00:00 27.56667 C 15.6 g/m*3 27.57 C 8.58333 km/h
391 22-07-2015 18:00:00 27.13333 C 14.3 g/m*3 27.13 C 7.925 km/h
392 22-07-2015 19:00:00 25.71667 C 13.78 g/m*3 25.72 C 7.90833 km/h
393 22-07-2015 20:00:00 24.625 C 13.02 g/m*3 24.63 C 9.83333 km/h
394 22-07-2015 21:00:00 23.825 C 12.05 g/m*3 23.83 C 10.06667 km/h
395 22-07-2015 22:00:00 22.75833 C 11.3 g/m*3 22.76 C 8.31667 km/h
396 22-07-2015 23:00:00 21.69167 C 11.87 g/m*3 21.69 C 2.93333 km/h
397 23-07-2015 00:00:00 20.00833 C 12.56 g/m*3 20.01 C 0 km/h
398 23-07-2015 01:00:00 18.55833 C 12.29 g/m*3 18.56 C 0.66667 km/h
399 23-07-2015 02:00:00 17.725 C 11.92 g/m*3 17.73 C 0.53333 km/h
400 23-07-2015 03:00:00 16.96667 C 11.64 g/m*3 16.97 C 0.8 km/h
Sensor: Nr:Datum:Temp:Abs-Feuchte:Windchill:Wind:
Aussen-T/F 401 23-07-2015 04:00:00 16.61667 C 11.68 g/m*3 16.62 C 1.46667 km/h
402 23-07-2015 05:00:00 16.88333 C 11.89 g/m*3 16.88 C 0.13333 km/h
403 23-07-2015 06:00:00 17.16667 C 11.67 g/m*3 17.17 C 1.2 km/h
404 23-07-2015 07:00:00 17.80833 C 11 g/m*3 17.81 C 3.46667 km/h
405 23-07-2015 08:00:00 18.5 C 10.92 g/m*3 18.5 C 7.65833 km/h
406 23-07-2015 09:00:00 19.125 C 10.88 g/m*3 19.13 C 6.03333 km/h
407 23-07-2015 10:00:00 20.55 C 10.99 g/m*3 20.55 C 8.33333 km/h
408 23-07-2015 11:00:00 22.43333 C 11.14 g/m*3 22.43 C 8.34167 km/h
409 23-07-2015 12:00:00 22.49167 C 11.26 g/m*3 22.49 C 5.75833 km/h
410 23-07-2015 13:00:00 23.65 C 11.45 g/m*3 23.65 C 4.68333 km/h
411 23-07-2015 14:00:00 24.55833 C 11.36 g/m*3 24.56 C 6.83333 km/h
412 23-07-2015 15:00:00 24.86667 C 10.93 g/m*3 24.87 C 6.70833 km/h
413 23-07-2015 16:00:00 25.16667 C 10.94 g/m*3 25.17 C 7.375 km/h
414 23-07-2015 17:00:00 24.55 C 10.7 g/m*3 24.55 C 8.21667 km/h
415 23-07-2015 18:00:00 25.46667 C 10.87 g/m*3 25.47 C 7.93333 km/h
416 23-07-2015 19:00:00 25.24167 C 10.79 g/m*3 25.24 C 6.96667 km/h
417 23-07-2015 20:00:00 22.375 C 11.4 g/m*3 22.38 C 2.13333 km/h
418 23-07-2015 21:00:00 19.06667 C 11.67 g/m*3 19.07 C 0.13333 km/h
419 23-07-2015 22:00:00 17.75 C 11.48 g/m*3 17.75 C 0.13333 km/h
420 23-07-2015 23:00:00 16.95 C 11.35 g/m*3 16.95 C 0 km/h
421 24-07-2015 00:00:00 16.3 C 11.04 g/m*3 16.3 C 0 km/h
422 24-07-2015 01:00:00 15.33333 C 10.83 g/m*3 15.33 C 0 km/h
423 24-07-2015 02:00:00 14.475 C 10.68 g/m*3 14.48 C 0 km/h
424 24-07-2015 03:00:00 14.26667 C 10.71 g/m*3 14.27 C 0 km/h
425 24-07-2015 04:00:00 13.91667 C 10.68 g/m*3 13.92 C 0 km/h
Sensor: Nr:Datum:Temp:Abs-Feuchte:Windchill:Wind:
Aussen-T/F 426 24-07-2015 05:00:00 13.80833 C 10.73 g/m*3 13.81 C 0 km/h
427 24-07-2015 06:00:00 13.73333 C 10.8 g/m*3 13.73 C 0 km/h
428 24-07-2015 07:00:00 14.52 C 11.26 g/m*3 14.52 C 1.28 km/h
429 24-07-2015 09:00:00 18.88 C 12.46 g/m*3 18.88 C 0.64 km/h
430 24-07-2015 10:00:00 20.79167 C 12.85 g/m*3 20.79 C 2.4 km/h
431 24-07-2015 11:00:00 23.71667 C 13.15 g/m*3 23.72 C 4 km/h
432 24-07-2015 12:00:00 25.90833 C 12.9 g/m*3 25.91 C 4.55 km/h
433 24-07-2015 13:00:00 26.60833 C 12.44 g/m*3 26.61 C 5.88333 km/h
434 24-07-2015 14:00:00 27.1 C 12.34 g/m*3 27.1 C 6.43333 km/h
435 24-07-2015 15:00:00 28.84167 C 12.81 g/m*3 28.84 C 8.33333 km/h
436 24-07-2015 16:00:00 29.8 C 12.92 g/m*3 29.8 C 6.425 km/h
437 24-07-2015 17:00:00 29.7 C 13.48 g/m*3 29.7 C 4.13333 km/h
438 24-07-2015 18:00:00 26.91667 C 15.8 g/m*3 26.92 C 0.8 km/h
439 24-07-2015 19:00:00 25.76667 C 15.56 g/m*3 25.77 C 0.13333 km/h
440 24-07-2015 20:00:00 24.55 C 15.15 g/m*3 24.55 C 0.13333 km/h
441 24-07-2015 21:00:00 23.03333 C 14.4 g/m*3 23.03 C 0.26667 km/h
442 24-07-2015 22:00:00 22.875 C 14.44 g/m*3 22.88 C 5.89167 km/h
443 24-07-2015 23:00:00 19.975 C 14.73 g/m*3 19.98 C 10.475 km/h
444 25-07-2015 00:00:00 18.375 C 14.46 g/m*3 18.38 C 1.2 km/h
445 25-07-2015 01:00:00 17.78333 C 14.34 g/m*3 17.78 C 0.13333 km/h
446 25-07-2015 02:00:00 17.46667 C 14.14 g/m*3 17.47 C 0.13333 km/h
447 25-07-2015 03:00:00 16.95833 C 13.8 g/m*3 16.96 C 0.4 km/h
448 25-07-2015 04:00:00 16.6 C 13.56 g/m*3 16.6 C 0.26667 km/h
449 25-07-2015 06:00:00 16.8 C 13.73 g/m*3 16.8 C 2.13333 km/h
450 25-07-2015 07:00:00 17.33333 C 13.73 g/m*3 17.33 C 6.96667 km/h
Sensor: Nr:Datum:Temp:Abs-Feuchte:Windchill:Wind:
Aussen-T/F 451 25-07-2015 08:00:00 18.89167 C 13.39 g/m*3 18.89 C 13.825 km/h
452 25-07-2015 09:00:00 20 C 12.59 g/m*3 20 C 21.84167 km/h
453 25-07-2015 10:00:00 19.35833 C 13.09 g/m*3 19.36 C 24.25833 km/h
454 25-07-2015 11:00:00 18.20833 C 12.87 g/m*3 18.21 C 18.375 km/h
455 25-07-2015 12:00:00 18.15833 C 12.73 g/m*3 18.16 C 13.825 km/h
456 25-07-2015 13:00:00 17.69167 C 11.78 g/m*3 17.69 C 16.49167 km/h
457 25-07-2015 14:00:00 18.83333 C 10.8 g/m*3 18.83 C 25.60833 km/h
458 25-07-2015 15:00:00 18.79167 C 10.28 g/m*3 18.79 C 23.99167 km/h
459 25-07-2015 16:00:00 18.175 C 10.18 g/m*3 18.18 C 24.8 km/h
460 25-07-2015 17:00:00 17.325 C 10.12 g/m*3 17.33 C 23.59167 km/h
461 25-07-2015 18:00:00 16.81667 C 9.73 g/m*3 16.82 C 23.30833 km/h
462 25-07-2015 19:00:00 16.6 C 9.54 g/m*3 16.6 C 18.23333 km/h
463 25-07-2015 20:00:00 16.13333 C 9.19 g/m*3 16.13 C 19.44167 km/h
464 25-07-2015 21:00:00 15.15833 C 8.89 g/m*3 15.16 C 11.825 km/h
465 25-07-2015 22:00:00 14.16667 C 8.89 g/m*3 14.17 C 8.86667 km/h
466 25-07-2015 23:00:00 13.43333 C 9.03 g/m*3 13.43 C 2.66667 km/h
467 26-07-2015 00:00:00 12.85833 C 9.09 g/m*3 12.86 C 3.6 km/h
468 26-07-2015 01:00:00 12.325 C 9.04 g/m*3 12.33 C 3.46667 km/h
469 26-07-2015 02:00:00 12.025 C 9.03 g/m*3 12.03 C 2.53333 km/h
470 26-07-2015 03:00:00 11.86364 C 8.98 g/m*3 11.86 C 3.92727 km/h
471 26-07-2015 04:00:00 10.71111 C 8.74 g/m*3 10.71 C 0.71111 km/h
472 26-07-2015 05:00:00 10.225 C 8.67 g/m*3 10.23 C 1.73333 km/h
473 26-07-2015 06:00:00 9.88333 C 8.57 g/m*3 9.88 C 2.8 km/h
474 26-07-2015 07:00:00 10.15 C 8.77 g/m*3 10.15 C 2.66667 km/h
475 26-07-2015 08:00:00 11.63333 C 9.39 g/m*3 11.63 C 2.55 km/h
Sensor: Nr:Datum:Temp:Abs-Feuchte:Windchill:Wind:
Aussen-T/F 476 26-07-2015 09:00:00 14.66667 C 9.78 g/m*3 14.67 C 6.00833 km/h
477 26-07-2015 10:00:00 16.95833 C 9.56 g/m*3 16.96 C 6.3 km/h
478 26-07-2015 11:00:00 18.98333 C 8.9 g/m*3 18.98 C 6.575 km/h
479 26-07-2015 12:00:00 20.85 C 8.87 g/m*3 20.85 C 7.25833 km/h
480 26-07-2015 13:00:00 21.25833 C 8.6 g/m*3 21.26 C 7.38333 km/h
481 26-07-2015 14:00:00 22.05833 C 8.42 g/m*3 22.06 C 8.325 km/h
482 26-07-2015 15:00:00 23.31667 C 8.25 g/m*3 23.32 C 8.34167 km/h
483 26-07-2015 16:00:00 23.26667 C 8.05 g/m*3 23.27 C 9.54167 km/h
484 26-07-2015 17:00:00 21.85 C 8.64 g/m*3 21.85 C 2.66667 km/h
485 26-07-2015 18:00:00 17.875 C 11.45 g/m*3 17.88 C 1.06667 km/h
486 26-07-2015 19:00:00 15.225 C 11.53 g/m*3 15.23 C 0.53333 km/h
487 26-07-2015 20:00:00 14.22857 C 11.32 g/m*3 14.23 C 1.82857 km/h
488 26-07-2015 22:00:00 13.53333 C 11.13 g/m*3 13.53 C 0 km/h
489 26-07-2015 23:00:00 13.3625 C 11.1 g/m*3 13.36 C 0 km/h
490 27-07-2015 00:00:00 13.27273 C 11.11 g/m*3 13.27 C 0.14545 km/h
491 27-07-2015 01:00:00 12.8 C 10.98 g/m*3 12.8 C 2.4 km/h
492 27-07-2015 02:00:00 12.76667 C 10.73 g/m*3 12.77 C 0.8 km/h
493 27-07-2015 03:00:00 12.7 C 10.69 g/m*3 12.7 C 3.2 km/h
494 27-07-2015 04:00:00 13.92727 C 11.53 g/m*3 13.93 C 0.58182 km/h
495 27-07-2015 05:00:00 14.225 C 11.74 g/m*3 14.23 C 0 km/h
496 27-07-2015 06:00:00 14.8 C 12.21 g/m*3 14.8 C 3.34167 km/h
497 27-07-2015 07:00:00 15.55 C 12.66 g/m*3 15.55 C 4.28333 km/h
498 27-07-2015 08:00:00 15.925 C 12.88 g/m*3 15.93 C 4.425 km/h
499 27-07-2015 09:00:00 16.175 C 12.84 g/m*3 16.18 C 7.90833 km/h
500 27-07-2015 10:00:00 17.11667 C 12.69 g/m*3 17.12 C 10.48333 km/h
Sensor: Nr:Datum:Temp:Abs-Feuchte:Windchill:Wind:
Aussen-T/F 501 27-07-2015 11:00:00 18.40833 C 12.55 g/m*3 18.41 C 17.43333 km/h
502 27-07-2015 12:00:00 18.04167 C 12.43 g/m*3 18.04 C 14.1 km/h
503 27-07-2015 13:00:00 19.15 C 12.52 g/m*3 19.15 C 19.83333 km/h
504 27-07-2015 14:00:00 18.68333 C 12.54 g/m*3 18.68 C 17.3 km/h
505 27-07-2015 15:00:00 20.18333 C 12.27 g/m*3 20.18 C 20.9 km/h
506 27-07-2015 16:00:00 20.63333 C 12.42 g/m*3 20.63 C 16.63333 km/h
507 27-07-2015 17:00:00 20.50833 C 12.51 g/m*3 20.51 C 16.1 km/h
508 27-07-2015 18:00:00 20.75833 C 12.79 g/m*3 20.76 C 10.88333 km/h
509 27-07-2015 19:00:00 20.9 C 11.82 g/m*3 20.9 C 15.43333 km/h
510 27-07-2015 20:00:00 20.15 C 11.65 g/m*3 20.15 C 9.25833 km/h
511 27-07-2015 21:00:00 19.7 C 11.43 g/m*3 19.7 C 8.85 km/h
512 27-07-2015 22:00:00 18.94167 C 11.21 g/m*3 18.94 C 5.09167 km/h
513 27-07-2015 23:00:00 18.69167 C 11.33 g/m*3 18.69 C 11.95 km/h
514 28-07-2015 00:00:00 16.76667 C 11.38 g/m*3 16.77 C 8.45833 km/h
515 28-07-2015 01:00:00 16.05 C 11.5 g/m*3 16.05 C 0 km/h
516 28-07-2015 02:00:00 15.66667 C 11.49 g/m*3 15.67 C 2.15 km/h
517 28-07-2015 03:00:00 15.61667 C 9.98 g/m*3 15.62 C 8.31667 km/h
518 28-07-2015 04:00:00 14.41667 C 9.82 g/m*3 14.42 C 2.55 km/h
519 28-07-2015 05:00:00 13.875 C 9.49 g/m*3 13.88 C 2.53333 km/h
520 28-07-2015 06:00:00 13.71667 C 9.29 g/m*3 13.72 C 3.48333 km/h
521 28-07-2015 07:00:00 14.18333 C 9.48 g/m*3 14.18 C 9.93333 km/h
522 28-07-2015 08:00:00 15.20833 C 9.44 g/m*3 15.21 C 14.5 km/h
523 28-07-2015 09:00:00 16.225 C 9.17 g/m*3 16.23 C 15.96667 km/h
524 28-07-2015 10:00:00 17.5 C 9.12 g/m*3 17.5 C 19.70833 km/h
525 28-07-2015 11:00:00 18.025 C 9.09 g/m*3 18.02 C 18.1 km/h
Sensor: Nr:Datum:Temp:Abs-Feuchte:Windchill:Wind:
Aussen-T/F 526 28-07-2015 12:00:00 18.68333 C 8.81 g/m*3 18.68 C 17.83333 km/h
527 28-07-2015 13:00:00 19.59167 C 8.48 g/m*3 19.59 C 20.25 km/h
528 28-07-2015 14:00:00 19.75 C 8.16 g/m*3 19.75 C 15.55833 km/h
529 28-07-2015 15:00:00 21.01667 C 8.16 g/m*3 21.02 C 19.04167 km/h
530 28-07-2015 16:00:00 20.03333 C 8.1 g/m*3 20.03 C 14.76667 km/h
531 28-07-2015 17:00:00 19.49167 C 8.25 g/m*3 19.49 C 11.675 km/h
532 28-07-2015 18:00:00 19.04167 C 8.25 g/m*3 19.04 C 15.03333 km/h
533 28-07-2015 19:00:00 18.71667 C 8.2 g/m*3 18.72 C 9.40833 km/h
534 28-07-2015 20:00:00 18.13333 C 8.15 g/m*3 18.13 C 5.35 km/h
535 28-07-2015 21:00:00 17.71667 C 8.41 g/m*3 17.72 C 8.06667 km/h
536 28-07-2015 22:00:00 16.85833 C 8.91 g/m*3 16.86 C 6.71667 km/h
537 28-07-2015 23:00:00 15.32 C 9.44 g/m*3 15.32 C 0.16 km/h
538 29-07-2015 03:00:00 14.24 C 9.13 g/m*3 14.24 C 1.6 km/h
539 29-07-2015 05:00:00 12.43333 C 9.09 g/m*3 12.43 C 1.06667 km/h
540 29-07-2015 07:00:00 13.6 C 11.77 g/m*3 13.6 C 8.85 km/h
541 29-07-2015 08:00:00 14.4 C 9.35 g/m*3 14.4 C 10.35 km/h
542 29-07-2015 09:00:00 15.51667 C 9.09 g/m*3 15.52 C 15.16667 km/h
543 29-07-2015 10:00:00 16.95 C 8.7 g/m*3 16.95 C 14.625 km/h
544 29-07-2015 11:00:00 18.475 C 7.95 g/m*3 18.48 C 15.43333 km/h
545 29-07-2015 12:00:00 19.675 C 7.28 g/m*3 19.68 C 14.23333 km/h
546 29-07-2015 13:00:00 20.11667 C 7.4 g/m*3 20.12 C 16.23333 km/h
547 29-07-2015 14:00:00 20.69167 C 7.33 g/m*3 20.69 C 17.7 km/h
548 29-07-2015 15:00:00 21.31667 C 7.12 g/m*3 21.32 C 15.83333 km/h
549 29-07-2015 16:00:00 21.3 C 7.15 g/m*3 21.3 C 17.96667 km/h
550 29-07-2015 17:00:00 20.55833 C 7.65 g/m*3 20.56 C 16.76667 km/h
Sensor: Nr:Datum:Temp:Abs-Feuchte:Windchill:Wind:
Aussen-T/F 551 29-07-2015 18:00:00 18.5 C 9.56 g/m*3 18.5 C 10.05833 km/h
552 29-07-2015 19:00:00 19.075 C 8.62 g/m*3 19.08 C 10.73333 km/h
553 29-07-2015 20:00:00 18.60833 C 8.43 g/m*3 18.61 C 8.2 km/h
554 29-07-2015 21:00:00 16.71667 C 8.49 g/m*3 16.72 C 4.01667 km/h
555 29-07-2015 22:00:00 15.25833 C 8.24 g/m*3 15.26 C 2.53333 km/h
556 29-07-2015 23:00:00 13.65 C 8.37 g/m*3 13.65 C 0.53333 km/h
557 30-07-2015 00:00:00 12.24167 C 8.27 g/m*3 12.24 C 0.13333 km/h
558 30-07-2015 01:00:00 11.425 C 8.16 g/m*3 11.43 C 0.26667 km/h
559 30-07-2015 02:00:00 10.975 C 8.17 g/m*3 10.98 C 2.95 km/h
560 30-07-2015 03:00:00 10.44167 C 8.12 g/m*3 10.44 C 1.33333 km/h
561 30-07-2015 04:00:00 10.2 C 8.11 g/m*3 10.2 C 3.2 km/h
562 30-07-2015 05:00:00 10.13333 C 8.15 g/m*3 9.35 C 7.125 km/h
563 30-07-2015 06:00:00 9.89167 C 8.1 g/m*3 9.89 C 3.2 km/h
564 30-07-2015 07:00:00 10.775 C 8.39 g/m*3 10.49 C 5.5 km/h
565 30-07-2015 08:00:00 12.26667 C 8.73 g/m*3 12.27 C 7.10833 km/h
566 30-07-2015 09:00:00 13.41667 C 8.94 g/m*3 13.42 C 6.425 km/h
567 30-07-2015 10:00:00 15.63333 C 9.28 g/m*3 15.63 C 6.69167 km/h
568 30-07-2015 11:00:00 18.25833 C 9.23 g/m*3 18.26 C 6.96667 km/h
569 30-07-2015 12:00:00 18.975 C 9.09 g/m*3 18.98 C 5.21667 km/h
570 30-07-2015 13:00:00 18.94167 C 9.5 g/m*3 18.94 C 7.11667 km/h
571 30-07-2015 14:00:00 20.34167 C 9.24 g/m*3 20.34 C 9.26667 km/h
572 30-07-2015 15:00:00 17.9 C 9.72 g/m*3 17.9 C 8.6 km/h
573 30-07-2015 16:00:00 16.125 C 10.16 g/m*3 16.13 C 4.95833 km/h
574 30-07-2015 17:00:00 15.05 C 9.75 g/m*3 15.05 C 4.69167 km/h
575 30-07-2015 18:00:00 15.56667 C 9.79 g/m*3 15.57 C 1.73333 km/h
Sensor: Nr:Datum:Temp:Abs-Feuchte:Windchill:Wind:
Aussen-T/F 576 30-07-2015 19:00:00 15.85 C 9.92 g/m*3 15.85 C 2.8 km/h
577 30-07-2015 20:00:00 15.48 C 10.59 g/m*3 15.48 C 1.92 km/h
578 31-07-2015 00:00:00 11.15714 C 9.5 g/m*3 11.16 C 1.14286 km/h
579 31-07-2015 01:00:00 10.74286 C 9.26 g/m*3 10.74 C 0 km/h
580 31-07-2015 03:00:00 10.35 C 9.13 g/m*3 10.35 C 0 km/h
581 31-07-2015 04:00:00 10.55833 C 9.25 g/m*3 10.56 C 0.13333 km/h
582 31-07-2015 05:00:00 10.7 C 9.33 g/m*3 10.7 C 0 km/h
583 31-07-2015 07:00:00 10.79091 C 9.38 g/m*3 10.79 C 0 km/h
584 31-07-2015 08:00:00 11.96667 C 9.86 g/m*3 11.97 C 2 km/h
585 31-07-2015 09:00:00 13.53333 C 9.93 g/m*3 13.53 C 5.20833 km/h
586 31-07-2015 10:00:00 15.05 C 9.69 g/m*3 15.05 C 6.85833 km/h
587 31-07-2015 11:00:00 17.075 C 9.37 g/m*3 17.08 C 7.39167 km/h
588 31-07-2015 12:00:00 18.68333 C 9.25 g/m*3 18.68 C 7.65833 km/h
589 31-07-2015 13:00:00 20.1 C 8.82 g/m*3 20.1 C 7.24167 km/h
590 31-07-2015 14:00:00 21.425 C 8.32 g/m*3 21.43 C 10.49167 km/h
591 31-07-2015 15:00:00 22.5 C 8.01 g/m*3 22.5 C 9.68333 km/h
592 31-07-2015 16:00:00 22.525 C 7.93 g/m*3 22.53 C 9.15 km/h
593 31-07-2015 17:00:00 23.28333 C 7.89 g/m*3 23.28 C 8.73333 km/h
594 31-07-2015 18:00:00 23.70833 C 7.85 g/m*3 23.71 C 9.15 km/h
595 31-07-2015 19:00:00 22.525 C 7.92 g/m*3 22.53 C 10.49167 km/h
596 31-07-2015 20:00:00 20.63333 C 8.19 g/m*3 20.63 C 4.825 km/h
597 31-07-2015 21:00:00 16.63333 C 8.27 g/m*3 16.63 C 0.53333 km/h
598 31-07-2015 22:00:00 14.91667 C 8.8 g/m*3 14.92 C 0.8 km/h
599 31-07-2015 23:00:00 13.79167 C 8.52 g/m*3 13.79 C 0 km/h
600 01-08-2015 00:00:00 13.20833 C 8.53 g/m*3 13.21 C 0 km/h
Sensor: Nr:Datum:Temp:Abs-Feuchte:Windchill:Wind:
Aussen-T/F 601 01-08-2015 01:00:00 13.1 C 8.57 g/m*3 13.1 C 0 km/h
602 01-08-2015 02:00:00 12.85 C 8.46 g/m*3 12.85 C 0 km/h
603 01-08-2015 03:00:00 12.75833 C 8.3 g/m*3 12.76 C 0 km/h
604 01-08-2015 04:00:00 12.66667 C 8.37 g/m*3 12.67 C 0 km/h
605 01-08-2015 05:00:00 12.68333 C 8.43 g/m*3 12.68 C 0 km/h
606 01-08-2015 06:00:00 12.21667 C 8.43 g/m*3 12.22 C 0 km/h
607 01-08-2015 07:00:00 12.79167 C 9.04 g/m*3 12.79 C 0 km/h
608 01-08-2015 08:00:00 14.34167 C 9.25 g/m*3 14.34 C 0.13333 km/h
609 01-08-2015 09:00:00 15.43333 C 9.28 g/m*3 15.43 C 1.46667 km/h
610 01-08-2015 10:00:00 17.15833 C 9.4 g/m*3 17.16 C 3.6 km/h
611 01-08-2015 11:00:00 20.44167 C 9.65 g/m*3 20.44 C 5.35 km/h
612 01-08-2015 12:00:00 23.1 C 9.66 g/m*3 23.1 C 6.025 km/h
613 01-08-2015 13:00:00 25.25833 C 9.46 g/m*3 25.26 C 8.06667 km/h
614 01-08-2015 14:00:00 26.96667 C 9.5 g/m*3 26.97 C 8.875 km/h
615 01-08-2015 15:00:00 28.00833 C 9.43 g/m*3 28.01 C 8.625 km/h
616 01-08-2015 16:00:00 28.125 C 9.22 g/m*3 28.13 C 6.98333 km/h
617 01-08-2015 17:00:00 27.60833 C 9.32 g/m*3 27.61 C 5.89167 km/h
618 01-08-2015 18:00:00 26.31667 C 10.1 g/m*3 26.32 C 6.03333 km/h
619 01-08-2015 19:00:00 26.99167 C 9.69 g/m*3 26.99 C 9.80833 km/h
620 01-08-2015 20:00:00 23.00833 C 10.25 g/m*3 23.01 C 2.675 km/h
621 01-08-2015 21:00:00 20.3 C 10.39 g/m*3 20.3 C 0.8 km/h
622 01-08-2015 22:00:00 18.6 C 10.27 g/m*3 18.6 C 1.06667 km/h
623 01-08-2015 23:00:00 17.85 C 10.12 g/m*3 17.85 C 1.06667 km/h
624 02-08-2015 00:00:00 17.325 C 10.13 g/m*3 17.33 C 0.93333 km/h
625 02-08-2015 01:00:00 16.28333 C 9.99 g/m*3 16.28 C 0.26667 km/h
Sensor: Nr:Datum:Temp:Abs-Feuchte:Windchill:Wind:
Aussen-T/F 626 02-08-2015 02:00:00 15.575 C 9.89 g/m*3 15.58 C 0.8 km/h
627 02-08-2015 03:00:00 14.49167 C 9.85 g/m*3 14.49 C 0.53333 km/h
628 02-08-2015 04:00:00 13.5 C 9.74 g/m*3 13.5 C 0 km/h
629 02-08-2015 05:00:00 12.525 C 9.55 g/m*3 12.53 C 0 km/h
630 02-08-2015 06:00:00 12.025 C 9.46 g/m*3 12.03 C 0 km/h
631 02-08-2015 07:00:00 12.33333 C 9.68 g/m*3 12.33 C 0.13333 km/h
632 02-08-2015 08:00:00 13.51667 C 10.26 g/m*3 13.52 C 0 km/h
633 02-08-2015 09:00:00 15.48333 C 10.85 g/m*3 15.48 C 0 km/h
634 02-08-2015 10:00:00 17.90833 C 11.22 g/m*3 17.91 C 1.73333 km/h
635 02-08-2015 11:00:00 22.45 C 11.49 g/m*3 22.45 C 2.66667 km/h
636 02-08-2015 12:00:00 25.24167 C 11.45 g/m*3 25.24 C 5.88333 km/h
637 02-08-2015 13:00:00 27.275 C 11.21 g/m*3 27.28 C 7.375 km/h
638 02-08-2015 14:00:00 28.58333 C 11.02 g/m*3 28.58 C 7.11667 km/h
639 02-08-2015 15:00:00 29.575 C 10.72 g/m*3 29.58 C 7.525 km/h
640 02-08-2015 16:00:00 30.74167 C 10.39 g/m*3 30.74 C 10.225 km/h
641 02-08-2015 17:00:00 30.49167 C 10.38 g/m*3 30.49 C 9.26667 km/h
642 02-08-2015 18:00:00 29.90833 C 10.36 g/m*3 29.91 C 7.10833 km/h
643 02-08-2015 19:00:00 28.9 C 10.71 g/m*3 28.9 C 6.725 km/h
644 02-08-2015 20:00:00 25.39167 C 12.45 g/m*3 25.39 C 0.26667 km/h
645 02-08-2015 21:00:00 21.51667 C 10.68 g/m*3 21.52 C 1.6 km/h
646 02-08-2015 22:00:00 20.38333 C 10.18 g/m*3 20.38 C 0.93333 km/h
647 02-08-2015 23:00:00 18.90833 C 10.55 g/m*3 18.91 C 0 km/h
648 03-08-2015 00:00:00 17.80833 C 10.45 g/m*3 17.81 C 0.13333 km/h
649 03-08-2015 01:00:00 16.69167 C 10.33 g/m*3 16.69 C 0 km/h
650 03-08-2015 02:00:00 15.60833 C 10.27 g/m*3 15.61 C 0 km/h
Sensor: Nr:Datum:Temp:Abs-Feuchte:Windchill:Wind:
Aussen-T/F 651 03-08-2015 03:00:00 14.875 C 10.13 g/m*3 14.88 C 0 km/h
652 03-08-2015 04:00:00 14.225 C 10 g/m*3 14.23 C 0 km/h
653 03-08-2015 05:00:00 13.70833 C 9.94 g/m*3 13.71 C 0 km/h
654 03-08-2015 06:00:00 13.41667 C 9.91 g/m*3 13.42 C 0 km/h
655 03-08-2015 07:00:00 13.61667 C 10.2 g/m*3 13.62 C 0 km/h
656 03-08-2015 08:00:00 14.88333 C 10.79 g/m*3 14.88 C 0 km/h
657 03-08-2015 09:00:00 17.125 C 11.48 g/m*3 17.13 C 0 km/h
658 03-08-2015 10:00:00 19.575 C 12.46 g/m*3 19.58 C 0 km/h
659 03-08-2015 11:00:00 25.125 C 12.29 g/m*3 25.13 C 2.275 km/h
660 03-08-2015 12:00:00 30.45 C 10.64 g/m*3 30.45 C 7.8 km/h
661 03-08-2015 13:00:00 31.95 C 10.66 g/m*3 31.95 C 8.31667 km/h
662 03-08-2015 14:00:00 33.08333 C 10.13 g/m*3 33.08 C 8.98333 km/h
663 03-08-2015 15:00:00 33.99167 C 9.97 g/m*3 33.99 C 8.86667 km/h
664 03-08-2015 16:00:00 35.05 C 10.54 g/m*3 35.05 C 6.29167 km/h
665 03-08-2015 17:00:00 35.63333 C 10.04 g/m*3 35.63 C 7.93333 km/h
666 03-08-2015 18:00:00 34.86667 C 9.98 g/m*3 34.87 C 6.175 km/h
667 03-08-2015 19:00:00 29.35833 C 12.25 g/m*3 29.36 C 0.8 km/h
668 03-08-2015 20:00:00 25.85833 C 11.63 g/m*3 25.86 C 1.06667 km/h
669 03-08-2015 21:00:00 23.81 C 11.49 g/m*3 23.81 C 0.16 km/h
670 03-08-2015 22:00:00 23.28571 C 11.7 g/m*3 23.29 C 0.91429 km/h
671 03-08-2015 23:00:00 22.75833 C 11.84 g/m*3 22.76 C 0.66667 km/h
672 04-08-2015 00:00:00 21.81667 C 12.1 g/m*3 21.82 C 0 km/h
673 04-08-2015 01:00:00 19.275 C 12.01 g/m*3 19.27 C 0 km/h
674 04-08-2015 02:00:00 18.09167 C 11.66 g/m*3 18.09 C 0 km/h
675 04-08-2015 03:00:00 17.3 C 11.44 g/m*3 17.3 C 0 km/h
Sensor: Nr:Datum:Temp:Abs-Feuchte:Windchill:Wind:
Aussen-T/F 676 04-08-2015 04:00:00 16.74167 C 11.37 g/m*3 16.74 C 0 km/h
677 04-08-2015 05:00:00 16.24167 C 11.39 g/m*3 16.24 C 0 km/h
678 04-08-2015 06:00:00 16.075 C 11.55 g/m*3 16.08 C 0 km/h
679 04-08-2015 07:00:00 17.00833 C 12.11 g/m*3 17.01 C 0 km/h
680 04-08-2015 08:00:00 19.69167 C 12.76 g/m*3 19.69 C 0.8 km/h
681 04-08-2015 09:00:00 21.90833 C 13.43 g/m*3 21.91 C 1.60833 km/h
682 04-08-2015 10:00:00 23.99167 C 13.16 g/m*3 23.99 C 6.3 km/h
683 04-08-2015 11:00:00 24.10833 C 13.17 g/m*3 24.11 C 11.275 km/h
684 04-08-2015 12:00:00 21.38333 C 14.92 g/m*3 21.38 C 3.225 km/h
685 04-08-2015 13:00:00 19.75833 C 15.59 g/m*3 19.76 C 0.53333 km/h
686 04-08-2015 14:00:00 20.55 C 16.02 g/m*3 20.55 C 3.60833 km/h
687 04-08-2015 15:00:00 21.60833 C 16.32 g/m*3 21.61 C 6.31667 km/h
688 04-08-2015 16:00:00 21.08333 C 16.69 g/m*3 21.08 C 0.13333 km/h
689 04-08-2015 17:00:00 18.89167 C 14.44 g/m*3 18.89 C 9.55 km/h
690 04-08-2015 18:00:00 18.24167 C 13.95 g/m*3 18.24 C 6.16667 km/h
691 04-08-2015 19:00:00 18.6 C 14.1 g/m*3 18.6 C 1.6 km/h
692 04-08-2015 20:00:00 18.15833 C 14.08 g/m*3 18.16 C 0 km/h
693 04-08-2015 21:00:00 16.35 C 12.89 g/m*3 16.35 C 0.26667 km/h
694 04-08-2015 22:00:00 15.31667 C 12.3 g/m*3 15.32 C 0 km/h
695 04-08-2015 23:00:00 14.6 C 11.88 g/m*3 14.6 C 0 km/h

Maximal/Minimal-Werte vom 23.02.2003 - 03.08.2020

Sensor Min Max Avg
Temp
(Aussen-T/F)
-16.4 °C
20-12-2009  01:30:01
40.4 °C
25-07-2019  16:20:00
11.23 °C

Die Daten stammen von einer Davis Vantage Pro 2 Wetter-Station und werden unter Linux mit der Software wview2wettercgi und aufbereitet. Alle Angaben erfolgen ohne Gewähr für ihre Vollständigkeit oder Richtigkeit.
Kontakt: Rainer Krienke krienke@uni-koblenz.de . Meine Webseiten an der Uni Koblenz oder privat.
Version: $Revision: 0.78 $